createdAt,value
2019-01-31T00:03:14.404Z,-4.40
2019-01-31T00:06:28.269Z,-4.60
2019-01-31T00:09:36.311Z,-4.60
2019-01-31T00:12:57.883Z,-4.70
2019-01-31T00:16:07.727Z,-4.70
2019-01-31T00:19:22.872Z,-4.70
2019-01-31T00:22:17.866Z,-4.80
2019-01-31T00:25:24.983Z,-4.80
2019-01-31T00:29:24.155Z,-4.80
2019-01-31T00:31:48.069Z,-4.80
2019-01-31T00:35:02.911Z,-4.70
2019-01-31T00:38:07.309Z,-4.70
2019-01-31T00:40:52.972Z,-4.70
2019-01-31T00:44:45.929Z,-4.80
2019-01-31T00:47:25.597Z,-4.80
2019-01-31T00:50:28.189Z,-4.90
2019-01-31T00:54:13.123Z,-4.70
2019-01-31T00:56:55.720Z,-4.90
2019-01-31T00:59:37.451Z,-5.00
2019-01-31T01:02:40.064Z,-5.00
2019-01-31T01:05:54.998Z,-4.90
2019-01-31T01:09:07.921Z,-5.00
2019-01-31T01:12:13.983Z,-5.00
2019-01-31T01:15:35.606Z,-5.10
2019-01-31T01:18:41.749Z,-5.20
2019-01-31T01:25:42.311Z,-5.10
2019-01-31T01:28:54.156Z,-5.10
2019-01-31T01:32:32.892Z,-5.20
2019-01-31T01:35:53.067Z,-5.20
2019-01-31T01:39:19.211Z,-5.30
2019-01-31T01:42:17.808Z,-5.40
2019-01-31T01:45:41.654Z,-5.40
2019-01-31T01:48:52.171Z,-5.40
2019-01-31T01:52:10.079Z,-5.30
2019-01-31T01:55:26.260Z,-5.40
2019-01-31T01:58:58.179Z,-5.30
2019-01-31T02:03:29.681Z,-5.40
2019-01-31T02:05:31.379Z,-5.40
2019-01-31T02:08:31.280Z,-5.60
2019-01-31T02:11:37.973Z,-5.50
2019-01-31T02:14:34.866Z,-5.60
2019-01-31T02:17:26.430Z,-5.60
2019-01-31T02:20:27.865Z,-5.70
2019-01-31T02:23:39.903Z,-5.70
2019-01-31T02:27:12.887Z,-5.70
2019-01-31T02:30:24.463Z,-5.60
2019-01-31T02:33:25.594Z,-5.80
2019-01-31T02:36:48.299Z,-5.80
2019-01-31T02:40:00.541Z,-5.80
2019-01-31T02:42:57.653Z,-5.80
2019-01-31T02:45:52.880Z,-5.70
2019-01-31T02:49:19.297Z,-5.70
2019-01-31T02:52:02.833Z,-5.70
2019-01-31T02:54:56.362Z,-5.70
2019-01-31T02:58:10.215Z,-5.80
2019-01-31T03:01:32.099Z,-5.80
2019-01-31T03:04:48.573Z,-5.70
2019-01-31T03:07:45.389Z,-5.80
2019-01-31T03:11:36.306Z,-5.80
2019-01-31T03:14:16.042Z,-5.90
2019-01-31T03:17:57.768Z,-5.90
2019-01-31T03:21:54.658Z,-6.00
2019-01-31T03:24:20.151Z,-5.90
2019-01-31T03:27:42.929Z,-5.90
2019-01-31T03:31:15.672Z,-6.00
2019-01-31T03:35:03.001Z,-6.00
2019-01-31T03:37:39.257Z,-6.00
2019-01-31T03:40:40.954Z,-6.10
2019-01-31T03:44:09.664Z,-6.10
2019-01-31T03:49:11.708Z,-6.20
2019-01-31T03:50:29.379Z,-6.20
2019-01-31T03:53:31.889Z,-6.20
2019-01-31T03:56:53.031Z,-6.10
2019-01-31T04:03:15.887Z,-6.10
2019-01-31T04:06:12.039Z,-6.10
2019-01-31T04:09:00.942Z,-6.20
2019-01-31T04:11:39.194Z,-6.30
2019-01-31T04:14:13.432Z,-6.30
2019-01-31T04:16:44.484Z,-6.40
2019-01-31T04:19:15.915Z,-6.40
2019-01-31T04:21:55.187Z,-6.40
2019-01-31T04:24:40.920Z,-6.40
2019-01-31T04:27:24.581Z,-6.50
2019-01-31T04:30:16.478Z,-6.40
2019-01-31T04:32:47.971Z,-6.50
2019-01-31T04:35:22.162Z,-6.40
2019-01-31T04:37:54.589Z,-6.40
2019-01-31T04:40:31.403Z,-6.50
2019-01-31T04:42:57.775Z,-6.40
2019-01-31T04:45:33.108Z,-6.40
2019-01-31T04:48:08.342Z,-6.50
2019-01-31T04:50:38.418Z,-6.50
2019-01-31T04:53:15.541Z,-6.50
2019-01-31T04:55:47.673Z,-6.40
2019-01-31T04:58:17.593Z,-6.40
2019-01-31T05:00:54.956Z,-6.30
2019-01-31T05:03:28.856Z,-6.40
2019-01-31T05:06:00.347Z,-6.50
2019-01-31T05:08:31.826Z,-6.50
2019-01-31T05:11:06.422Z,-6.60
2019-01-31T05:13:36.485Z,-6.50
2019-01-31T05:16:09.240Z,-6.60
2019-01-31T05:18:41.675Z,-6.60
2019-01-31T05:21:13.695Z,-6.50
2019-01-31T05:23:45.836Z,-6.50
2019-01-31T05:26:19.865Z,-6.60
2019-01-31T05:28:50.277Z,-6.50
2019-01-31T05:31:56.584Z,-6.40
2019-01-31T05:34:20.269Z,-6.50
2019-01-31T05:36:54.299Z,-6.50
2019-01-31T05:39:25.476Z,-6.40
2019-01-31T05:42:15.751Z,-6.50
2019-01-31T05:44:46.708Z,-6.40
2019-01-31T05:47:16.455Z,-6.50
2019-01-31T05:49:50.241Z,-6.50
2019-01-31T05:52:22.826Z,-6.50
2019-01-31T05:54:56.420Z,-6.60
2019-01-31T05:57:30.298Z,-6.50
2019-01-31T06:00:05.128Z,-6.60
2019-01-31T06:02:39.616Z,-6.60
2019-01-31T06:05:20.237Z,-6.70
2019-01-31T06:07:52.860Z,-6.80
2019-01-31T06:10:33.578Z,-6.80
2019-01-31T06:13:06.172Z,-6.80
2019-01-31T06:15:36.414Z,-6.80
2019-01-31T06:18:17.064Z,-6.80
2019-01-31T06:20:50.197Z,-6.90
2019-01-31T06:23:27.641Z,-6.90
2019-01-31T06:25:57.767Z,-6.80
2019-01-31T06:28:34.483Z,-6.80
2019-01-31T06:31:06.758Z,-6.90
2019-01-31T06:33:54.471Z,-6.90
2019-01-31T06:36:25.470Z,-7.00
2019-01-31T06:39:00.349Z,-7.00
2019-01-31T06:41:32.628Z,-7.00
2019-01-31T06:44:04.214Z,-7.00
2019-01-31T06:46:53.497Z,-6.90
2019-01-31T06:49:23.290Z,-6.90
2019-01-31T06:52:01.343Z,-6.60
2019-01-31T06:54:31.229Z,-6.80
2019-01-31T06:57:01.094Z,-6.90
2019-01-31T06:59:52.941Z,-7.00
2019-01-31T07:02:23.900Z,-7.10
2019-01-31T07:05:25.739Z,-7.10
2019-01-31T07:07:41.034Z,-7.10
2019-01-31T07:10:19.580Z,-7.10
2019-01-31T07:13:05.860Z,-6.90
2019-01-31T07:15:35.910Z,-7.00
2019-01-31T07:18:06.060Z,-7.10
2019-01-31T07:20:36.011Z,-7.10
2019-01-31T07:23:06.024Z,-7.20
2019-01-31T07:25:35.868Z,-7.10
2019-01-31T07:28:26.897Z,-7.20
2019-01-31T07:30:59.276Z,-7.20
2019-01-31T07:33:39.695Z,-7.20
2019-01-31T07:36:50.683Z,-7.20
2019-01-31T07:39:24.533Z,-7.20
2019-01-31T07:41:57.260Z,-7.20
2019-01-31T07:44:54.303Z,-7.10
2019-01-31T07:47:41.829Z,-7.20
2019-01-31T07:50:13.295Z,-7.20
2019-01-31T07:52:50.878Z,-7.20
2019-01-31T07:55:21.842Z,-7.20
2019-01-31T07:57:53.545Z,-7.20
2019-01-31T08:00:25.562Z,-7.20
2019-01-31T08:02:58.487Z,-7.10
2019-01-31T08:05:40.396Z,-7.00
2019-01-31T08:08:13.508Z,-6.90
2019-01-31T08:10:56.171Z,-6.90
2019-01-31T08:13:29.571Z,-6.90
2019-01-31T08:16:02.038Z,-7.00
2019-01-31T08:18:36.429Z,-7.00
2019-01-31T08:21:06.362Z,-6.90
2019-01-31T08:23:45.732Z,-6.90
2019-01-31T08:26:18.425Z,-6.80
2019-01-31T08:29:06.255Z,-6.60
2019-01-31T08:31:38.252Z,-6.50
2019-01-31T08:34:25.679Z,-6.20
2019-01-31T08:36:59.686Z,-5.90
2019-01-31T08:39:32.028Z,-5.70
2019-01-31T08:42:22.590Z,-5.60
2019-01-31T08:44:44.900Z,-5.40
2019-01-31T08:47:21.269Z,-5.50
2019-01-31T08:50:18.012Z,-5.40
2019-01-31T08:52:52.878Z,-5.40
2019-01-31T08:55:23.138Z,-5.30
2019-01-31T08:58:05.337Z,-5.30
2019-01-31T09:00:40.494Z,-5.20
2019-01-31T09:03:15.573Z,-5.00
2019-01-31T09:05:57.394Z,-5.10
2019-01-31T09:08:37.189Z,-4.80
2019-01-31T09:11:09.051Z,-4.70
2019-01-31T09:14:04.432Z,-4.30
2019-01-31T09:16:58.230Z,-4.10
2019-01-31T09:19:43.194Z,-4.30
2019-01-31T09:23:06.191Z,-4.20
2019-01-31T09:25:58.553Z,-4.00
2019-01-31T09:29:14.264Z,-3.70
2019-01-31T09:34:36.714Z,-3.50
2019-01-31T09:35:24.922Z,-3.30
2019-01-31T09:38:39.846Z,-2.50
2019-01-31T09:41:52.367Z,-2.40
2019-01-31T09:44:49.798Z,-2.70
2019-01-31T09:47:45.480Z,-2.80
2019-01-31T09:53:52.990Z,-1.60
2019-01-31T09:57:10.649Z,-1.90
2019-01-31T10:00:43.494Z,-2.00
2019-01-31T10:03:49.011Z,-2.20
2019-01-31T10:07:11.741Z,-2.20
2019-01-31T10:10:07.599Z,-1.80
2019-01-31T10:13:04.251Z,-1.50
2019-01-31T10:16:41.464Z,-1.40
2019-01-31T10:19:34.690Z,-1.00
2019-01-31T10:22:56.102Z,-0.50
2019-01-31T10:26:24.855Z,0.90
2019-01-31T10:32:54.164Z,1.00
2019-01-31T10:36:19.428Z,1.90
2019-01-31T10:39:45.846Z,2.00
2019-01-31T10:42:53.180Z,2.20
2019-01-31T10:46:11.633Z,0.80
2019-01-31T10:49:30.992Z,0.40
2019-01-31T10:52:43.353Z,0.40
2019-01-31T10:55:50.092Z,0.30
2019-01-31T10:59:12.503Z,0.30
2019-01-31T11:02:49.290Z,0.30
2019-01-31T11:05:42.576Z,0.30
2019-01-31T11:08:41.959Z,0.50
2019-01-31T11:12:12.592Z,0.60
2019-01-31T11:15:02.954Z,0.60
2019-01-31T11:18:07.251Z,0.80
2019-01-31T11:21:29.665Z,0.90
2019-01-31T11:24:52.690Z,1.20
2019-01-31T11:31:23.895Z,1.20
2019-01-31T11:36:44.210Z,1.30
2019-01-31T11:38:10.415Z,1.40
2019-01-31T11:41:18.157Z,1.50
2019-01-31T11:44:41.737Z,1.50
2019-01-31T11:48:50.685Z,1.70
2019-01-31T11:51:12.393Z,1.80
2019-01-31T11:54:20.769Z,1.80
2019-01-31T12:00:32.885Z,1.90
2019-01-31T12:03:10.662Z,1.80
2019-01-31T12:06:02.512Z,2.00
2019-01-31T12:08:40.606Z,2.10
2019-01-31T12:11:32.038Z,2.20
2019-01-31T12:14:02.111Z,2.10
2019-01-31T12:16:32.065Z,2.20
2019-01-31T12:19:02.078Z,2.40
2019-01-31T12:21:41.422Z,2.60
2019-01-31T12:24:19.374Z,3.10
2019-01-31T12:27:09.751Z,3.20
2019-01-31T12:29:39.881Z,3.10
2019-01-31T12:32:13.403Z,2.90
2019-01-31T12:34:43.433Z,2.90
2019-01-31T12:37:15.566Z,2.90
2019-01-31T12:39:55.200Z,2.80
2019-01-31T12:42:26.466Z,2.80
2019-01-31T12:45:15.059Z,2.70
2019-01-31T12:47:47.946Z,2.70
2019-01-31T12:50:23.678Z,2.70
2019-01-31T12:53:04.375Z,2.70
2019-01-31T12:55:34.551Z,2.70
2019-01-31T12:58:33.066Z,2.80
2019-01-31T13:03:16.374Z,3.00
2019-01-31T13:05:55.214Z,3.00
2019-01-31T13:08:25.104Z,2.90
2019-01-31T13:11:35.843Z,2.90
2019-01-31T13:14:05.607Z,2.90
2019-01-31T13:16:37.035Z,2.90
2019-01-31T13:19:14.528Z,2.90
2019-01-31T13:25:01.622Z,3.00
2019-01-31T13:27:42.297Z,3.10
2019-01-31T13:31:48.111Z,3.10
2019-01-31T13:32:33.422Z,3.10
2019-01-31T13:35:11.019Z,3.20
2019-01-31T13:37:43.633Z,3.20
2019-01-31T13:40:26.171Z,3.10
2019-01-31T13:43:18.994Z,3.10
2019-01-31T13:45:48.689Z,3.00
2019-01-31T13:48:18.989Z,3.00
2019-01-31T13:50:50.580Z,2.90
2019-01-31T13:53:38.695Z,2.90
2019-01-31T13:56:17.210Z,2.80
2019-01-31T13:58:59.323Z,2.80
2019-01-31T14:01:47.361Z,2.90
2019-01-31T14:04:24.449Z,3.00
2019-01-31T14:06:59.565Z,3.00
2019-01-31T14:09:33.909Z,3.00
2019-01-31T14:12:07.874Z,2.90
2019-01-31T14:14:40.926Z,2.90
2019-01-31T14:17:15.239Z,2.90
2019-01-31T14:19:45.156Z,2.90
2019-01-31T14:22:20.280Z,2.90
2019-01-31T14:24:51.992Z,2.90
2019-01-31T14:27:23.537Z,3.00
2019-01-31T14:29:56.785Z,2.90
2019-01-31T14:32:28.621Z,2.90
2019-01-31T14:35:00.331Z,2.90
2019-01-31T14:37:31.458Z,2.80
2019-01-31T14:40:03.104Z,2.80
2019-01-31T14:42:37.035Z,2.80
2019-01-31T14:45:09.692Z,2.80
2019-01-31T14:47:42.164Z,2.80
2019-01-31T14:50:18.574Z,2.70
2019-01-31T14:52:50.809Z,2.80
2019-01-31T14:55:22.722Z,2.80
2019-01-31T14:57:52.575Z,2.90
2019-01-31T15:00:27.249Z,2.90
2019-01-31T15:02:57.162Z,3.00
2019-01-31T15:05:31.018Z,3.00
2019-01-31T15:08:01.397Z,3.00
2019-01-31T15:10:31.495Z,2.90
2019-01-31T15:13:20.349Z,2.90
2019-01-31T15:15:50.567Z,2.80
2019-01-31T15:18:38.188Z,2.70
2019-01-31T15:21:08.102Z,2.70
2019-01-31T15:23:45.607Z,2.60
2019-01-31T15:26:17.421Z,2.60
2019-01-31T15:29:00.017Z,2.60
2019-01-31T15:31:36.093Z,2.50
2019-01-31T15:34:23.640Z,2.50
2019-01-31T15:36:56.722Z,2.40
2019-01-31T15:39:26.661Z,2.40
2019-01-31T15:42:01.571Z,2.20
2019-01-31T15:44:43.094Z,2.20
2019-01-31T15:47:08.626Z,2.10
2019-01-31T15:49:46.998Z,2.10
2019-01-31T15:52:47.647Z,2.00
2019-01-31T15:55:33.782Z,2.00
2019-01-31T15:58:01.594Z,2.00
2019-01-31T16:00:57.784Z,1.90
2019-01-31T16:06:40.384Z,1.80
2019-01-31T16:09:10.762Z,1.80
2019-01-31T16:11:40.771Z,1.80
2019-01-31T16:14:11.116Z,1.70
2019-01-31T16:16:41.874Z,1.70
2019-01-31T16:19:14.397Z,1.70
2019-01-31T16:21:48.471Z,1.60
2019-01-31T16:24:21.936Z,1.50
2019-01-31T16:26:55.404Z,1.50
2019-01-31T16:29:26.550Z,1.50
2019-01-31T16:32:06.438Z,1.50
2019-01-31T16:34:36.194Z,1.50
2019-01-31T16:37:08.368Z,1.40
2019-01-31T16:39:38.228Z,1.40
2019-01-31T16:42:12.511Z,1.30
2019-01-31T16:44:47.590Z,1.40
2019-01-31T16:47:17.617Z,1.20
2019-01-31T16:52:43.634Z,1.10
2019-01-31T16:55:17.824Z,1.10
2019-01-31T16:57:48.057Z,1.00
2019-01-31T17:00:39.543Z,1.10
2019-01-31T17:03:13.048Z,1.00
2019-01-31T17:06:02.858Z,1.00
2019-01-31T17:08:32.626Z,0.90
2019-01-31T17:11:28.849Z,0.90
2019-01-31T17:14:08.070Z,0.90
2019-01-31T17:16:39.416Z,0.90
2019-01-31T17:19:09.244Z,0.90
2019-01-31T17:21:39.097Z,0.80
2019-01-31T17:24:17.463Z,0.80
2019-01-31T17:27:35.551Z,0.70
2019-01-31T17:29:24.941Z,0.70
2019-01-31T17:31:57.677Z,0.70
2019-01-31T17:34:27.656Z,0.70
2019-01-31T17:36:57.389Z,0.60
2019-01-31T17:39:29.807Z,0.50
2019-01-31T17:41:59.671Z,0.50
2019-01-31T17:44:32.228Z,0.50
2019-01-31T17:47:06.304Z,0.50
2019-01-31T17:49:41.495Z,0.40
2019-01-31T17:52:11.421Z,0.40
2019-01-31T17:54:41.499Z,0.40
2019-01-31T17:57:20.180Z,0.30
2019-01-31T18:00:11.333Z,0.30
2019-01-31T18:02:45.550Z,0.20
2019-01-31T18:05:25.547Z,0.30
2019-01-31T18:08:09.035Z,0.30
2019-01-31T18:10:53.665Z,0.30
2019-01-31T18:13:36.558Z,0.20
2019-01-31T18:16:19.547Z,0.20
2019-01-31T18:21:47.591Z,0.20
2019-01-31T18:24:27.596Z,0.20
2019-01-31T18:27:16.460Z,0.20
2019-01-31T18:29:59.335Z,0.20
2019-01-31T18:32:55.899Z,0.10
2019-01-31T18:35:46.314Z,0.20
2019-01-31T18:38:41.545Z,0.10
2019-01-31T18:41:22.238Z,0.10
2019-01-31T18:44:11.040Z,0.10
2019-01-31T18:46:51.678Z,0.10
2019-01-31T18:49:34.528Z,0.20
2019-01-31T18:52:03.382Z,0.20
2019-01-31T18:54:43.524Z,0.20
2019-01-31T18:57:24.219Z,0.20
2019-01-31T18:59:49.491Z,0.10
2019-01-31T19:02:24.505Z,0.20
2019-01-31T19:04:59.579Z,0.20
2019-01-31T19:10:25.178Z,0.20
2019-01-31T19:12:50.282Z,0.10
2019-01-31T19:15:20.618Z,0.10
2019-01-31T19:17:50.623Z,0.10
2019-01-31T19:20:37.289Z,0.10
2019-01-31T19:23:08.947Z,0.10
2019-01-31T19:25:50.450Z,0.10
2019-01-31T19:28:20.911Z,0.10
2019-01-31T19:30:50.972Z,0.10
2019-01-31T19:33:31.703Z,0.10
2019-01-31T19:36:04.363Z,0.10
2019-01-31T19:38:44.566Z,0.10
2019-01-31T19:41:21.214Z,0.20
2019-01-31T19:44:00.325Z,0.10
2019-01-31T19:48:15.166Z,0.20
2019-01-31T19:49:41.868Z,0.20
2019-01-31T19:52:15.864Z,0.20
2019-01-31T19:54:46.979Z,0.20
2019-01-31T19:57:35.771Z,0.20
2019-01-31T20:00:09.090Z,0.30
2019-01-31T20:02:42.251Z,0.30
2019-01-31T20:05:21.300Z,0.40
2019-01-31T20:07:52.092Z,0.40
2019-01-31T20:10:26.010Z,0.40
2019-01-31T20:13:14.476Z,0.40
2019-01-31T20:15:56.569Z,0.40
2019-01-31T20:18:45.663Z,0.50
2019-01-31T20:21:20.721Z,0.50
2019-01-31T20:24:11.467Z,0.40
2019-01-31T20:26:52.294Z,0.40
2019-01-31T20:29:23.057Z,0.40
2019-01-31T20:32:20.807Z,0.30
2019-01-31T20:35:00.183Z,0.30
2019-01-31T20:37:37.671Z,0.30
2019-01-31T20:40:18.612Z,0.20
2019-01-31T20:43:07.222Z,0.20
2019-01-31T20:45:37.544Z,0.10
2019-01-31T20:48:24.958Z,0.00
2019-01-31T20:50:57.661Z,-0.10
2019-01-31T20:53:45.655Z,-0.10
2019-01-31T20:56:15.474Z,-0.10
2019-01-31T20:58:52.898Z,-0.10
2019-01-31T21:01:25.827Z,0.00
2019-01-31T21:04:14.268Z,0.00
2019-01-31T21:06:44.139Z,-0.10
2019-01-31T21:09:17.724Z,0.00
2019-01-31T21:11:56.472Z,-0.10
2019-01-31T21:14:28.592Z,-0.10
2019-01-31T21:17:10.149Z,-0.10
2019-01-31T21:19:47.864Z,0.00
2019-01-31T21:22:35.451Z,-0.10
2019-01-31T21:25:11.277Z,-0.10
2019-01-31T21:27:53.494Z,-0.10
2019-01-31T21:30:32.117Z,-0.10
2019-01-31T21:33:04.992Z,-0.10
2019-01-31T21:35:37.057Z,-0.10
2019-01-31T21:38:33.746Z,-0.10
2019-01-31T21:41:03.909Z,-0.20
2019-01-31T21:43:33.935Z,-0.20
2019-01-31T21:46:11.465Z,-0.20
2019-01-31T21:48:47.182Z,-0.20
2019-01-31T21:51:27.763Z,-0.20
2019-01-31T21:54:07.096Z,-0.20
2019-01-31T21:56:45.873Z,-0.20
2019-01-31T21:59:18.501Z,-0.20
2019-01-31T22:02:03.534Z,-0.20
2019-01-31T22:04:41.767Z,-0.10
2019-01-31T22:07:11.560Z,-0.10
2019-01-31T22:09:59.028Z,-0.10
2019-01-31T22:12:28.700Z,-0.10
2019-01-31T22:15:16.305Z,-0.10
2019-01-31T22:17:43.810Z,0.00
2019-01-31T22:20:16.599Z,0.00
2019-01-31T22:22:46.994Z,0.00
2019-01-31T22:25:48.364Z,0.10
2019-01-31T22:28:39.376Z,0.00
2019-01-31T22:31:14.403Z,0.00
2019-01-31T22:33:44.221Z,0.10
2019-01-31T22:36:16.732Z,0.10
2019-01-31T22:39:23.935Z,0.10
2019-01-31T22:41:55.808Z,0.10
2019-01-31T22:44:35.908Z,0.00
2019-01-31T22:47:10.136Z,0.00
2019-01-31T22:49:39.929Z,0.10
2019-01-31T22:52:09.854Z,0.00
2019-01-31T22:54:43.371Z,0.00
2019-01-31T22:57:15.793Z,0.00
2019-01-31T22:59:45.682Z,0.00
2019-01-31T23:02:16.005Z,-0.10
2019-01-31T23:05:04.228Z,-0.10
2019-01-31T23:07:42.973Z,0.00
2019-01-31T23:10:23.592Z,0.00
2019-01-31T23:12:59.114Z,-0.10
2019-01-31T23:15:48.280Z,-0.10
2019-01-31T23:18:18.112Z,-0.10
2019-01-31T23:20:58.656Z,0.00
2019-01-31T23:23:37.082Z,0.00
2019-01-31T23:26:19.097Z,0.00
2019-01-31T23:28:58.532Z,0.00
2019-01-31T23:31:31.332Z,0.00
2019-01-31T23:34:01.194Z,0.10
2019-01-31T23:36:42.938Z,0.10
2019-01-31T23:39:15.344Z,0.10
2019-01-31T23:41:46.621Z,0.10
2019-01-31T23:44:34.433Z,0.10
2019-01-31T23:49:46.935Z,0.10
2019-01-31T23:52:19.720Z,0.00
2019-01-31T23:54:58.452Z,0.10
2019-01-31T23:57:34.785Z,0.00
